Terminal Aerodrome Forecast
Issued by NWS Springfield, MO

Home | Current Version | Previous Version | Text Only | Print | Product List | Glossary On
Versions: 1 2 3 4 5 6 7 8 9 10 11 12 13 14 15 16 17 18 19 20 21 22 23 24 25
000
FTUS43 KSGF 031200 AAA
TAFSGF
TAF AMD
KSGF 031227Z 0312/0412 17015KT 3SM BR OVC003 WS020/21040KT
      TEMPO 0313/0315 1SM -RADZ BR
     FM031500 20017G24KT 4SM BR OVC004 WS020/23050KT
     FM031800 23017G24KT P6SM OVC007
     FM032200 24012KT P6SM OVC007
     FM040400 36010KT 4SM -RA BR OVC007
     FM040700 36010KT 3SM -SN BR OVC007=

USA.gov is the U.S. government's official web portal to all federal, state and local government web resources and services.